General Downing - Peoria International Airport (PIA)


Airport Diagram
Current Weather/Forecast (MVFR Conditions)
METAR KPIA 252354Z 27010G19KT 10SM OVC020 01/M02 A2997 RMK AO2 SLP155 T00061017 10011 20000 51009
TAF KPIA 252331Z 2600/2624 26012KT P6SM OVC025 FM260600 26006KT P6SM OVC025

All Charts
General
Chart Name Download
AIRPORT DIAGRAM
TAKEOFF MINIMUMS
ALTERNATE MINIMUMS
HOT SPOT

Approaches
Chart Name Download
HI-ILS OR LOC RWY 31
ILS OR LOC RWY 04
ILS OR LOC RWY 13
ILS OR LOC RWY 31
ILS RWY 04 (SA CAT I - II)
RNAV (GPS) RWY 04
RNAV (GPS) RWY 13
RNAV (GPS) RWY 22
RNAV (GPS) RWY 31
HI-VOR/DME OR TACAN RWY 31
VOR/DME OR TACAN RWY 31
VOR OR TACAN RWY 13
NDB RWY 31